Time,TemperatureF,DewpointF,PressureIn,WindDirection,WindDirectionDegrees,WindSpeedMPH,WindSpeedGustMPH,Humidity,HourlyPrecipIn,Conditions,Clouds,dailyrainin,SoftwareType,DateUTC
2013-01-02 00:03:00,7.3,0.7,29.00,SSW,203,0.0,2.2,74,0.00,,,0.00,WUHU216HW,2013-01-02 06:03:00,
2013-01-02 00:10:00,7.3,0.7,29.00,SSW,203,0.0,0.0,74,0.00,,,0.00,WUHU216HW,2013-01-02 06:10:00,
2013-01-02 00:15:00,6.9,0.3,29.00,SSW,203,3.3,3.3,74,0.00,,,0.00,WUHU216HW,2013-01-02 06:15:00,
2013-01-02 00:20:00,6.6,0.0,29.00,SSW,203,6.4,6.4,74,0.00,,,0.00,WUHU216HW,2013-01-02 06:20:00,
2013-01-02 00:25:00,6.4,-0.1,29.00,SSW,203,6.7,6.7,74,0.00,,,0.00,WUHU216HW,2013-01-02 06:25:00,
2013-01-02 00:30:00,6.4,-0.1,28.99,SSW,203,5.5,6.7,74,0.00,,,0.00,WUHU216HW,2013-01-02 06:30:00,
2013-01-02 00:36:00,6.0,-0.5,28.99,SSW,203,4.6,7.3,74,0.00,,,0.00,WUHU216HW,2013-01-02 06:36:00,
2013-01-02 00:41:00,6.0,-0.5,29.00,SSW,203,4.4,7.3,74,0.00,,,0.00,WUHU216HW,2013-01-02 06:41:00,
2013-01-02 00:46:00,5.9,-0.6,28.99,SSW,203,1.3,4.4,74,0.00,,,0.00,WUHU216HW,2013-01-02 06:46:00,
2013-01-02 00:51:00,5.7,-0.8,29.00,SSW,203,3.8,4.2,74,0.00,,,0.00,WUHU216HW,2013-01-02 06:51:00,
2013-01-02 00:56:00,5.5,-1.0,28.99,SSW,203,1.5,4.2,74,0.00,,,0.00,WUHU216HW,2013-01-02 06:56:00,
2013-01-02 01:01:00,5.5,-1.0,28.99,SSW,203,2.4,2.9,74,0.00,,,0.00,WUHU216HW,2013-01-02 07:01:00,
2013-01-02 01:06:00,5.5,-1.0,28.99,SSW,203,6.4,6.4,74,0.00,,,0.00,WUHU216HW,2013-01-02 07:06:00,
2013-01-02 01:11:00,5.3,-1.2,28.99,SSW,203,3.8,6.7,74,0.00,,,0.00,WUHU216HW,2013-01-02 07:11:00,
2013-01-02 01:16:00,5.1,-1.4,28.99,SSW,203,3.8,6.7,74,0.00,,,0.00,WUHU216HW,2013-01-02 07:16:00,
2013-01-02 01:21:00,5.1,-1.4,28.99,SSW,203,8.0,8.0,74,0.00,,,0.00,WUHU216HW,2013-01-02 07:21:00,
2013-01-02 01:26:00,5.0,-1.5,28.99,SSW,203,3.8,8.0,74,0.00,,,0.00,WUHU216HW,2013-01-02 07:26:00,
2013-01-02 01:31:00,5.0,-1.5,28.99,SSW,203,3.5,5.8,74,0.00,,,0.00,WUHU216HW,2013-01-02 07:31:00,
2013-01-02 01:36:00,5.1,-1.4,28.99,SSW,203,4.4,4.6,74,0.00,,,0.00,WUHU216HW,2013-01-02 07:36:00,
2013-01-02 01:41:00,5.3,-1.2,28.99,SSW,203,6.4,7.1,74,0.00,,,0.00,WUHU216HW,2013-01-02 07:41:00,
2013-01-02 01:46:00,5.5,-1.0,28.99,SSW,203,2.8,7.1,74,0.00,,,0.00,WUHU216HW,2013-01-02 07:46:00,
2013-01-02 01:52:00,5.5,-1.0,28.99,SSW,203,6.2,6.2,74,0.00,,,0.00,WUHU216HW,2013-01-02 07:52:00,
2013-01-02 01:57:00,5.3,-1.2,28.99,SSW,203,5.1,7.6,74,0.00,,,0.00,WUHU216HW,2013-01-02 07:57:00,
2013-01-02 02:02:00,5.1,-1.4,28.99,SSW,203,1.7,7.6,74,0.00,,,0.00,WUHU216HW,2013-01-02 08:02:00,
2013-01-02 02:07:00,5.1,-1.4,28.99,SSW,203,5.1,5.1,74,0.00,,,0.00,WUHU216HW,2013-01-02 08:07:00,
2013-01-02 02:12:00,5.3,-1.2,28.99,SSW,203,2.2,7.3,74,0.00,,,0.00,WUHU216HW,2013-01-02 08:12:00,
2013-01-02 02:17:00,5.7,-0.5,28.99,SSW,203,7.6,7.6,75,0.00,,,0.00,WUHU216HW,2013-01-02 08:17:00,
2013-01-02 02:22:00,6.0,-0.2,28.98,SSW,203,1.1,7.6,75,0.00,,,0.00,WUHU216HW,2013-01-02 08:22:00,
2013-01-02 02:27:00,6.6,0.3,28.99,SSW,203,0.0,2.2,75,0.00,,,0.00,WUHU216HW,2013-01-02 08:27:00,
2013-01-02 02:32:00,6.9,0.6,28.99,SSW,203,3.1,3.1,75,0.00,,,0.00,WUHU216HW,2013-01-02 08:32:00,
2013-01-02 02:37:00,7.5,1.3,28.99,SSW,203,2.8,3.1,76,0.00,,,0.00,WUHU216HW,2013-01-02 08:37:00,
2013-01-02 02:42:00,8.0,2.0,28.98,SSW,203,3.5,3.5,76,0.00,,,0.00,WUHU216HW,2013-01-02 08:42:00,
2013-01-02 02:47:00,8.4,2.6,28.99,SSW,203,0.0,4.6,77,0.00,,,0.00,WUHU216HW,2013-01-02 08:47:00,
2013-01-02 02:52:00,8.7,3.0,28.99,SSW,203,0.0,4.6,77,0.00,,,0.00,WUHU216HW,2013-01-02 08:52:00,
2013-01-02 02:58:00,9.1,3.3,28.99,SSW,203,0.0,3.1,77,0.00,,,0.00,WUHU216HW,2013-01-02 08:58:00,
2013-01-02 03:03:00,9.1,3.3,28.98,SSW,203,0.0,3.1,77,0.00,,,0.00,WUHU216HW,2013-01-02 09:03:00,
2013-01-02 03:08:00,9.6,4.1,28.98,SSW,203,0.0,0.0,78,0.00,,,0.00,WUHU216HW,2013-01-02 09:08:00,
2013-01-02 03:13:00,9.6,4.1,28.98,SSW,203,0.0,0.0,78,0.00,,,0.00,WUHU216HW,2013-01-02 09:13:00,
2013-01-02 03:18:00,9.6,4.1,28.98,SSW,203,0.0,0.0,78,0.00,,,0.00,WUHU216HW,2013-01-02 09:18:00,
2013-01-02 03:23:00,10.0,4.4,28.98,SSW,203,0.0,0.0,78,0.00,,,0.00,WUHU216HW,2013-01-02 09:23:00,
2013-01-02 03:28:00,10.2,4.9,28.98,SSW,203,0.0,0.0,79,0.00,,,0.00,WUHU216HW,2013-01-02 09:28:00,
2013-01-02 03:33:00,10.2,4.9,28.98,SSW,203,0.0,0.0,79,0.00,,,0.00,WUHU216HW,2013-01-02 09:33:00,
2013-01-02 03:38:00,10.2,4.9,28.97,SSW,203,0.0,0.0,79,0.00,,,0.00,WUHU216HW,2013-01-02 09:38:00,
2013-01-02 03:43:00,10.4,5.0,28.97,SSW,203,0.0,0.0,79,0.00,,,0.00,WUHU216HW,2013-01-02 09:43:00,
2013-01-02 03:49:00,10.2,4.9,28.97,SSW,203,0.0,0.0,79,0.00,,,0.00,WUHU216HW,2013-01-02 09:49:00,
2013-01-02 03:54:00,10.0,4.7,28.97,SSW,203,0.0,0.0,79,0.00,,,0.00,WUHU216HW,2013-01-02 09:54:00,
2013-01-02 03:59:00,9.6,4.4,28.97,SSW,203,0.0,0.0,79,0.00,,,0.00,WUHU216HW,2013-01-02 09:59:00,
2013-01-02 04:11:00,9.6,4.4,28.96,SSW,203,0.0,0.0,79,0.00,,,0.00,WUHU216HW,2013-01-02 10:11:00,
2013-01-02 04:16:00,9.1,3.9,28.95,SSW,203,0.0,0.0,79,0.00,,,0.00,WUHU216HW,2013-01-02 10:16:00,
2013-01-02 04:21:00,8.9,3.7,28.95,SSW,203,0.0,0.0,79,0.00,,,0.00,WUHU216HW,2013-01-02 10:21:00,
2013-01-02 04:26:00,8.6,3.1,28.95,SSW,203,0.0,0.0,78,0.00,,,0.00,WUHU216HW,2013-01-02 10:26:00,
2013-01-02 04:31:00,8.4,2.9,28.95,SSW,203,0.0,0.0,78,0.00,,,0.00,WUHU216HW,2013-01-02 10:31:00,
2013-01-02 04:36:00,8.2,2.8,28.94,SSW,203,0.0,0.0,78,0.00,,,0.00,WUHU216HW,2013-01-02 10:36:00,
2013-01-02 04:42:00,7.8,2.4,28.94,SSW,203,0.0,0.0,78,0.00,,,0.00,WUHU216HW,2013-01-02 10:42:00,
2013-01-02 04:47:00,7.5,2.0,28.95,South,180,0.0,0.0,78,0.00,,,0.00,WUHU216HW,2013-01-02 10:47:00,
2013-01-02 04:52:00,7.3,1.9,28.94,SSE,158,0.0,0.0,78,0.00,,,0.00,WUHU216HW,2013-01-02 10:52:00,
2013-01-02 04:57:00,6.9,1.5,28.94,SSE,158,0.0,0.0,78,0.00,,,0.00,WUHU216HW,2013-01-02 10:57:00,
2013-01-02 05:02:00,6.6,1.1,28.94,SSE,158,0.0,0.0,78,0.00,,,0.00,WUHU216HW,2013-01-02 11:02:00,
2013-01-02 05:07:00,6.6,0.8,28.95,SSE,158,0.0,0.0,77,0.00,,,0.00,WUHU216HW,2013-01-02 11:07:00,
2013-01-02 05:12:00,6.4,0.7,28.95,SSE,158,0.0,0.0,77,0.00,,,0.00,WUHU216HW,2013-01-02 11:12:00,
2013-01-02 05:17:00,6.4,0.7,28.95,SSE,158,0.0,0.0,77,0.00,,,0.00,WUHU216HW,2013-01-02 11:17:00,
2013-01-02 05:22:00,6.2,0.5,28.94,SSE,158,0.0,0.0,77,0.00,,,0.00,WUHU216HW,2013-01-02 11:22:00,
2013-01-02 05:28:00,6.0,0.3,28.94,SSE,158,0.0,0.0,77,0.00,,,0.00,WUHU216HW,2013-01-02 11:28:00,
2013-01-02 05:33:00,6.0,0.3,28.94,SSE,158,0.0,0.0,77,0.00,,,0.00,WUHU216HW,2013-01-02 11:33:00,
2013-01-02 05:38:00,6.0,0.3,28.94,SSE,158,0.0,0.0,77,0.00,,,0.00,WUHU216HW,2013-01-02 11:38:00,
2013-01-02 05:43:00,5.9,0.1,28.94,SSE,158,0.0,0.0,77,0.00,,,0.00,WUHU216HW,2013-01-02 11:43:00,
2013-01-02 05:48:00,5.7,0.0,28.93,SSE,158,0.0,0.0,77,0.00,,,0.00,WUHU216HW,2013-01-02 11:48:00,
2013-01-02 05:53:00,5.7,0.0,28.93,SSE,158,0.0,0.0,77,0.00,,,0.00,WUHU216HW,2013-01-02 11:53:00,
2013-01-02 05:58:00,5.5,-0.1,28.93,SSE,158,0.0,0.0,77,0.00,,,0.00,WUHU216HW,2013-01-02 11:58:00,
2013-01-02 06:03:00,5.5,-0.1,28.93,SSE,158,0.0,0.0,77,0.00,,,0.00,WUHU216HW,2013-01-02 12:03:00,
2013-01-02 06:09:00,5.5,-0.1,28.92,SSE,158,0.0,0.0,77,0.00,,,0.00,WUHU216HW,2013-01-02 12:09:00,
2013-01-02 06:14:00,5.5,-0.1,28.93,South,180,0.0,0.0,77,0.00,,,0.00,WUHU216HW,2013-01-02 12:14:00,
2013-01-02 06:19:00,5.5,-0.1,28.93,South,180,0.0,0.0,77,0.00,,,0.00,WUHU216HW,2013-01-02 12:19:00,
2013-01-02 06:24:00,5.3,-0.3,28.93,South,180,0.0,0.0,77,0.00,,,0.00,WUHU216HW,2013-01-02 12:24:00,
2013-01-02 06:29:00,5.3,-0.3,28.93,South,180,0.0,0.0,77,0.00,,,0.00,WUHU216HW,2013-01-02 12:29:00,
2013-01-02 06:34:00,5.1,-0.5,28.93,South,180,0.0,0.0,77,0.00,,,0.00,WUHU216HW,2013-01-02 12:34:00,
2013-01-02 06:39:00,5.1,-0.5,28.93,South,180,0.0,0.0,77,0.00,,,0.00,WUHU216HW,2013-01-02 12:39:00,
2013-01-02 06:44:00,5.0,-0.7,28.92,SSE,158,0.0,0.0,77,0.00,,,0.00,WUHU216HW,2013-01-02 12:44:00,
2013-01-02 06:50:00,4.8,-0.9,28.93,SSE,158,0.0,0.0,77,0.00,,,0.00,WUHU216HW,2013-01-02 12:50:00,
2013-01-02 06:55:00,4.8,-0.9,28.93,South,180,0.0,0.0,77,0.00,,,0.00,WUHU216HW,2013-01-02 12:55:00,
2013-01-02 07:00:00,4.8,-0.9,28.93,South,180,0.0,0.0,77,0.00,,,0.00,WUHU216HW,2013-01-02 13:00:00,
2013-01-02 07:05:00,4.6,-1.0,28.93,South,180,0.0,0.0,77,0.00,,,0.00,WUHU216HW,2013-01-02 13:05:00,
2013-01-02 07:10:00,4.4,-1.2,28.93,South,180,0.0,0.0,77,0.00,,,0.00,WUHU216HW,2013-01-02 13:10:00,
2013-01-02 07:15:00,4.4,-1.2,28.94,SSE,158,0.0,0.0,77,0.00,,,0.00,WUHU216HW,2013-01-02 13:15:00,
2013-01-02 07:20:00,4.2,-1.4,28.94,SSE,158,0.0,0.0,77,0.00,,,0.00,WUHU216HW,2013-01-02 13:20:00,
2013-01-02 07:25:00,4.2,-1.4,28.93,SSE,158,0.0,0.0,77,0.00,,,0.00,WUHU216HW,2013-01-02 13:25:00,
2013-01-02 07:30:00,4.2,-1.4,28.94,SSE,158,0.0,0.0,77,0.00,,,0.00,WUHU216HW,2013-01-02 13:30:00,
2013-01-02 07:35:00,4.2,-1.4,28.94,SSE,158,0.0,0.0,77,0.00,,,0.00,WUHU216HW,2013-01-02 13:35:00,
2013-01-02 07:40:00,4.1,-1.6,28.94,SSE,158,0.0,0.0,77,0.00,,,0.00,WUHU216HW,2013-01-02 13:40:00,
2013-01-02 07:46:00,4.1,-1.6,28.94,SSE,158,0.0,0.0,77,0.00,,,0.00,WUHU216HW,2013-01-02 13:46:00,
2013-01-02 07:51:00,4.2,-1.4,28.94,SSE,158,0.0,0.0,77,0.00,,,0.00,WUHU216HW,2013-01-02 13:51:00,
2013-01-02 07:56:00,4.1,-1.6,28.94,SSE,158,0.0,0.0,77,0.00,,,0.00,WUHU216HW,2013-01-02 13:56:00,
2013-01-02 08:01:00,4.1,-1.6,28.94,SSE,158,0.0,0.0,77,0.00,,,0.00,WUHU216HW,2013-01-02 14:01:00,
2013-01-02 08:06:00,4.1,-1.6,28.95,SSE,158,0.0,0.0,77,0.00,,,0.00,WUHU216HW,2013-01-02 14:06:00,
2013-01-02 08:11:00,4.1,-1.6,28.95,SSE,158,0.0,0.0,77,0.00,,,0.00,WUHU216HW,2013-01-02 14:11:00,
2013-01-02 08:16:00,4.2,-1.4,28.95,SSE,158,0.0,0.0,77,0.00,,,0.00,WUHU216HW,2013-01-02 14:16:00,
2013-01-02 08:21:00,4.4,-1.2,28.95,SSE,158,0.0,0.0,77,0.00,,,0.00,WUHU216HW,2013-01-02 14:21:00,
2013-01-02 08:26:00,4.6,-1.0,28.95,SSE,158,0.0,0.0,77,0.00,,,0.00,WUHU216HW,2013-01-02 14:26:00,
2013-01-02 08:32:00,4.8,-0.9,28.95,SSE,158,0.0,0.0,77,0.00,,,0.00,WUHU216HW,2013-01-02 14:32:00,
2013-01-02 08:37:00,5.0,-0.7,28.94,SSE,158,0.0,0.0,77,0.00,,,0.00,WUHU216HW,2013-01-02 14:37:00,
2013-01-02 08:42:00,5.1,-0.5,28.94,SSE,158,0.0,0.0,77,0.00,,,0.00,WUHU216HW,2013-01-02 14:42:00,
2013-01-02 08:47:00,5.7,0.0,28.94,SSE,158,0.0,0.0,77,0.00,,,0.00,WUHU216HW,2013-01-02 14:47:00,
2013-01-02 08:52:00,5.9,0.1,28.94,SSE,158,0.0,0.0,77,0.00,,,0.00,WUHU216HW,2013-01-02 14:52:00,
2013-01-02 08:57:00,6.0,0.3,28.94,SSE,158,0.0,0.0,77,0.00,,,0.00,WUHU216HW,2013-01-02 14:57:00,
2013-01-02 09:02:00,6.4,0.7,28.94,South,180,0.0,0.0,77,0.00,,,0.00,WUHU216HW,2013-01-02 15:02:00,
2013-01-02 09:07:00,6.8,1.0,28.94,SSE,158,0.0,1.5,77,0.00,,,0.00,WUHU216HW,2013-01-02 15:07:00,
2013-01-02 09:12:00,7.1,1.4,28.93,SSE,158,0.0,1.5,77,0.00,,,0.00,WUHU216HW,2013-01-02 15:12:00,
2013-01-02 09:17:00,7.5,1.7,28.93,SSE,158,0.0,0.2,77,0.00,,,0.00,WUHU216HW,2013-01-02 15:17:00,
2013-01-02 09:22:00,7.8,2.1,28.93,SSE,158,0.0,0.2,77,0.00,,,0.00,WUHU216HW,2013-01-02 15:22:00,
2013-01-02 09:27:00,8.2,2.2,28.93,SSE,158,0.4,0.4,76,0.00,,,0.00,WUHU216HW,2013-01-02 15:27:00,
2013-01-02 09:33:00,8.4,2.4,28.93,SSE,158,5.1,5.1,76,0.00,,,0.00,WUHU216HW,2013-01-02 15:33:00,
2013-01-02 09:38:00,8.7,2.7,28.93,SSE,158,2.2,5.1,76,0.00,,,0.00,WUHU216HW,2013-01-02 15:38:00,
2013-01-02 09:43:00,9.1,3.0,28.93,SSE,158,0.0,3.5,76,0.00,,,0.00,WUHU216HW,2013-01-02 15:43:00,
2013-01-02 09:48:00,9.6,3.5,28.93,SSE,158,0.0,3.5,76,0.00,,,0.00,WUHU216HW,2013-01-02 15:48:00,
2013-01-02 09:53:00,11.1,5.2,28.93,SSE,158,0.0,4.9,77,0.00,,,0.00,WUHU216HW,2013-01-02 15:53:00,
2013-01-02 09:58:00,12.0,5.8,28.93,South,180,0.0,4.9,76,0.00,,,0.00,WUHU216HW,2013-01-02 15:58:00,
2013-01-02 10:03:00,12.9,6.4,28.93,South,180,0.0,0.0,75,0.00,,,0.00,WUHU216HW,2013-01-02 16:03:00,
2013-01-02 10:08:00,13.2,6.8,28.93,South,180,0.0,0.0,75,0.00,,,0.00,WUHU216HW,2013-01-02 16:08:00,
2013-01-02 10:13:00,13.8,7.0,28.93,SSW,203,7.3,7.3,74,0.00,,,0.00,WUHU216HW,2013-01-02 16:13:00,
2013-01-02 10:18:00,14.1,7.3,28.92,SSW,203,4.0,7.3,74,0.00,,,0.00,WUHU216HW,2013-01-02 16:18:00,
2013-01-02 10:23:00,14.1,7.1,28.92,South,180,4.4,5.8,73,0.00,,,0.00,WUHU216HW,2013-01-02 16:23:00,
2013-01-02 10:28:00,14.1,7.1,28.93,SSW,203,5.3,6.2,73,0.00,,,0.00,WUHU216HW,2013-01-02 16:28:00,
2013-01-02 10:33:00,14.5,7.4,28.94,SW,225,7.8,7.8,73,0.00,,,0.00,WUHU216HW,2013-01-02 16:33:00,
2013-01-02 10:39:00,14.7,7.6,28.93,SSW,203,0.0,7.8,73,0.00,,,0.00,WUHU216HW,2013-01-02 16:39:00,
2013-01-02 10:44:00,14.7,7.6,28.93,SSW,203,1.3,7.8,73,0.00,,,0.00,WUHU216HW,2013-01-02 16:44:00,
2013-01-02 10:49:00,15.4,8.2,28.93,SW,225,6.4,6.4,73,0.00,,,0.00,WUHU216HW,2013-01-02 16:49:00,
2013-01-02 10:54:00,15.6,8.4,28.93,SSW,208,5.6,8.2,73,0.00,,,0.00,WUHU216HW,2013-01-02 16:54:00,
2013-01-02 10:59:00,15.9,8.7,28.92,SSW,203,2.4,8.2,73,0.00,,,0.00,WUHU216HW,2013-01-02 16:59:00,
2013-01-02 11:04:00,15.9,8.4,28.93,SSW,203,0.0,2.9,72,0.00,,,0.00,WUHU216HW,2013-01-02 17:04:00,
2013-01-02 11:09:00,16.3,9.1,28.92,SSW,203,4.4,4.4,73,0.00,,,0.00,WUHU216HW,2013-01-02 17:09:00,
2013-01-02 11:14:00,17.2,9.7,28.92,SSW,203,1.7,4.4,72,0.00,,,0.00,WUHU216HW,2013-01-02 17:14:00,
2013-01-02 11:19:00,17.4,9.8,28.92,SSW,203,1.1,4.4,72,0.00,,,0.00,WUHU216HW,2013-01-02 17:19:00,
2013-01-02 11:25:00,18.3,10.5,28.91,South,180,7.1,7.3,72,0.00,,,0.00,WUHU216HW,2013-01-02 17:25:00,
2013-01-02 11:30:00,18.3,10.7,28.92,South,180,7.6,7.6,72,0.00,,,0.00,WUHU216HW,2013-01-02 17:30:00,
2013-01-02 11:35:00,18.3,10.4,28.91,South,180,5.8,7.6,71,0.00,,,0.00,WUHU216HW,2013-01-02 17:35:00,
2013-01-02 11:40:00,18.3,10.4,28.91,SSE,158,8.2,8.2,71,0.00,,,0.00,WUHU216HW,2013-01-02 17:40:00,
2013-01-02 11:45:00,18.1,10.2,28.91,South,180,2.6,9.6,71,0.00,,,0.00,WUHU216HW,2013-01-02 17:45:00,
2013-01-02 11:50:00,18.3,10.4,28.91,SSW,203,5.8,9.6,71,0.00,,,0.00,WUHU216HW,2013-01-02 17:50:00,
2013-01-02 11:55:00,18.3,10.4,28.91,South,180,5.8,6.9,71,0.00,,,0.00,WUHU216HW,2013-01-02 17:55:00,
2013-01-02 12:00:00,18.8,10.9,28.91,South,180,7.3,7.3,71,0.00,,,0.00,WUHU216HW,2013-01-02 18:00:00,
2013-01-02 12:05:00,19.5,11.6,28.91,SSW,203,2.0,7.3,71,0.00,,,0.00,WUHU216HW,2013-01-02 18:05:00,
2013-01-02 12:10:00,19.9,11.9,28.91,SW,225,0.0,4.6,71,0.00,,,0.00,WUHU216HW,2013-01-02 18:10:00,
2013-01-02 12:15:00,20.3,12.3,28.90,SW,225,0.0,2.6,71,0.00,,,0.00,WUHU216HW,2013-01-02 18:15:00,
2013-01-02 12:20:00,21.5,13.8,28.90,SW,225,1.5,2.6,72,0.00,,,0.00,WUHU216HW,2013-01-02 18:20:00,
2013-01-02 12:26:00,22.6,14.6,28.90,WSW,248,0.0,1.5,71,0.00,,,0.00,WUHU216HW,2013-01-02 18:26:00,
2013-01-02 12:31:00,22.8,14.8,28.90,WSW,248,0.0,5.3,71,0.00,,,0.00,WUHU216HW,2013-01-02 18:31:00,
2013-01-02 12:36:00,23.5,15.5,28.90,SW,233,4.0,5.3,71,0.00,,,0.00,WUHU216HW,2013-01-02 18:36:00,
2013-01-02 12:41:00,23.7,15.2,28.91,SSW,203,8.5,8.5,70,0.00,,,0.00,WUHU216HW,2013-01-02 18:41:00,
2013-01-02 12:46:00,23.7,15.0,28.90,West,270,0.0,8.5,69,0.00,,,0.00,WUHU216HW,2013-01-02 18:46:00,
2013-01-02 12:51:00,23.9,15.1,28.90,WSW,248,0.0,8.5,69,0.00,,,0.00,WUHU216HW,2013-01-02 18:51:00,
2013-01-02 12:56:00,23.9,15.1,28.89,WSW,248,0.8,1.1,69,0.00,,,0.00,WUHU216HW,2013-01-02 18:56:00,
2013-01-02 13:01:00,24.0,15.3,28.90,WSW,248,0.0,0.8,69,0.00,,,0.00,WUHU216HW,2013-01-02 19:01:00,
2013-01-02 13:07:00,24.4,15.6,28.89,West,270,0.0,0.0,69,0.00,,,0.00,WUHU216HW,2013-01-02 19:07:00,
2013-01-02 13:12:00,24.0,15.3,28.89,WSW,248,0.0,0.0,69,0.00,,,0.00,WUHU216HW,2013-01-02 19:12:00,
2013-01-02 13:17:00,23.9,15.1,28.89,WSW,248,0.0,0.0,69,0.00,,,0.00,WUHU216HW,2013-01-02 19:17:00,
2013-01-02 13:22:00,23.7,15.0,28.90,WSW,248,0.0,0.0,69,0.00,,,0.00,WUHU216HW,2013-01-02 19:22:00,
2013-01-02 13:27:00,23.9,15.5,28.89,West,270,0.0,0.2,70,0.00,,,0.00,WUHU216HW,2013-01-02 19:27:00,
2013-01-02 13:32:00,23.7,15.3,28.90,West,270,0.0,0.2,70,0.00,,,0.00,WUHU216HW,2013-01-02 19:32:00,
2013-01-02 13:37:00,23.3,15.0,28.89,WSW,248,0.0,0.0,70,0.00,,,0.00,WUHU216HW,2013-01-02 19:37:00,
2013-01-02 13:42:00,23.3,15.3,28.90,WSW,248,0.0,0.0,71,0.00,,,0.00,WUHU216HW,2013-01-02 19:42:00,
2013-01-02 13:47:00,23.3,15.3,28.90,SW,225,0.0,3.1,71,0.00,,,0.00,WUHU216HW,2013-01-02 19:47:00,
2013-01-02 13:52:00,23.1,15.1,28.90,West,270,2.0,3.1,71,0.00,,,0.00,WUHU216HW,2013-01-02 19:52:00,
2013-01-02 13:57:00,22.8,14.8,28.90,West,270,1.7,2.0,71,0.00,,,0.00,WUHU216HW,2013-01-02 19:57:00,
2013-01-02 14:02:00,22.8,15.1,28.90,West,270,0.0,2.0,72,0.00,,,0.00,WUHU216HW,2013-01-02 20:02:00,
2013-01-02 14:08:00,22.6,14.9,28.90,West,270,0.0,0.0,72,0.00,,,0.00,WUHU216HW,2013-01-02 20:08:00,
2013-01-02 14:13:00,22.4,15.0,28.89,West,270,0.0,0.0,73,0.00,,,0.00,WUHU216HW,2013-01-02 20:13:00,
2013-01-02 14:18:00,22.4,15.0,28.90,West,270,0.0,0.0,73,0.00,,,0.00,WUHU216HW,2013-01-02 20:18:00,
2013-01-02 14:23:00,22.6,15.5,28.90,West,270,0.0,0.0,74,0.00,,,0.00,WUHU216HW,2013-01-02 20:23:00,
2013-01-02 14:28:00,22.8,15.7,28.90,West,270,0.0,0.0,74,0.00,,,0.00,WUHU216HW,2013-01-02 20:28:00,
2013-01-02 14:33:00,22.8,15.7,28.90,West,270,0.0,0.0,74,0.00,,,0.00,WUHU216HW,2013-01-02 20:33:00,
2013-01-02 14:38:00,22.8,15.7,28.90,West,270,0.0,0.0,74,0.00,,,0.00,WUHU216HW,2013-01-02 20:38:00,
2013-01-02 14:43:00,23.3,16.2,28.90,West,270,0.0,0.0,74,0.00,,,0.00,WUHU216HW,2013-01-02 20:43:00,
2013-01-02 14:48:00,23.5,16.4,28.90,West,270,0.0,0.0,74,0.00,,,0.00,WUHU216HW,2013-01-02 20:48:00,
2013-01-02 14:54:00,23.5,16.4,28.91,West,270,0.0,0.0,74,0.00,,,0.00,WUHU216HW,2013-01-02 20:54:00,
2013-01-02 14:59:00,23.3,16.2,28.91,West,270,0.0,0.0,74,0.00,,,0.00,WUHU216HW,2013-01-02 20:59:00,
2013-01-02 15:04:00,23.1,16.4,28.91,West,270,0.0,0.0,75,0.00,,,0.00,WUHU216HW,2013-01-02 21:04:00,
2013-01-02 15:09:00,23.1,16.4,28.91,West,270,0.0,0.0,75,0.00,,,0.00,WUHU216HW,2013-01-02 21:09:00,
2013-01-02 15:14:00,23.1,16.4,28.91,West,270,0.0,0.0,75,0.00,,,0.00,WUHU216HW,2013-01-02 21:14:00,
2013-01-02 15:19:00,23.1,16.7,28.91,West,270,0.0,0.0,76,0.00,,,0.00,WUHU216HW,2013-01-02 21:19:00,
2013-01-02 15:24:00,23.3,16.8,28.91,West,270,0.0,0.0,76,0.00,,,0.00,WUHU216HW,2013-01-02 21:24:00,
2013-01-02 15:29:00,23.5,17.0,28.91,West,270,0.0,0.0,76,0.00,,,0.00,WUHU216HW,2013-01-02 21:29:00,
2013-01-02 15:34:00,23.7,17.2,28.92,West,270,0.0,0.0,76,0.00,,,0.00,WUHU216HW,2013-01-02 21:34:00,
2013-01-02 15:40:00,23.9,17.4,28.92,West,270,0.0,0.0,76,0.00,,,0.00,WUHU216HW,2013-01-02 21:40:00,
2013-01-02 15:45:00,24.0,17.5,28.92,West,270,0.0,0.0,76,0.00,,,0.00,WUHU216HW,2013-01-02 21:45:00,
2013-01-02 15:50:00,24.0,17.5,28.92,West,270,0.0,0.0,76,0.00,,,0.00,WUHU216HW,2013-01-02 21:50:00,
2013-01-02 15:55:00,24.0,17.5,28.92,West,270,0.0,0.0,76,0.00,,,0.00,WUHU216HW,2013-01-02 21:55:00,
2013-01-02 16:00:00,24.0,17.5,28.92,West,270,1.1,1.1,76,0.00,,,0.00,WUHU216HW,2013-01-02 22:00:00,
2013-01-02 16:05:00,24.4,18.2,28.92,West,270,0.0,1.1,77,0.00,,,0.00,WUHU216HW,2013-01-02 22:05:00,
2013-01-02 16:10:00,24.4,18.2,28.93,WSW,248,0.0,0.0,77,0.00,,,0.00,WUHU216HW,2013-01-02 22:10:00,
2013-01-02 16:15:00,24.2,18.0,28.93,WSW,248,0.0,0.0,77,0.00,,,0.00,WUHU216HW,2013-01-02 22:15:00,
2013-01-02 16:20:00,24.4,18.5,28.93,WSW,248,0.0,0.0,78,0.00,,,0.00,WUHU216HW,2013-01-02 22:20:00,
2013-01-02 16:26:00,24.0,18.2,28.93,WSW,248,0.0,0.0,78,0.00,,,0.00,WUHU216HW,2013-01-02 22:26:00,
2013-01-02 16:31:00,24.0,18.2,28.93,WSW,248,0.0,0.0,78,0.00,,,0.00,WUHU216HW,2013-01-02 22:31:00,
2013-01-02 16:36:00,24.0,18.2,28.93,WSW,248,0.0,0.0,78,0.00,,,0.00,WUHU216HW,2013-01-02 22:36:00,
2013-01-02 16:41:00,24.0,18.2,28.94,WSW,248,0.0,0.0,78,0.00,,,0.00,WUHU216HW,2013-01-02 22:41:00,
2013-01-02 16:46:00,24.0,18.5,28.94,WSW,248,0.0,0.0,79,0.00,,,0.00,WUHU216HW,2013-01-02 22:46:00,
2013-01-02 16:51:00,24.0,18.5,28.94,WSW,248,0.0,0.0,79,0.00,,,0.00,WUHU216HW,2013-01-02 22:51:00,
2013-01-02 16:56:00,24.0,18.5,28.94,WSW,248,0.0,0.0,79,0.00,,,0.00,WUHU216HW,2013-01-02 22:56:00,
2013-01-02 17:01:00,24.0,18.5,28.94,WSW,248,0.0,0.0,79,0.00,,,0.00,WUHU216HW,2013-01-02 23:01:00,
2013-01-02 17:06:00,24.0,18.5,28.94,WSW,248,0.0,0.0,79,0.00,,,0.00,WUHU216HW,2013-01-02 23:06:00,
2013-01-02 17:11:00,24.2,18.7,28.94,SW,225,0.0,0.0,79,0.00,,,0.00,WUHU216HW,2013-01-02 23:11:00,
2013-01-02 17:17:00,24.4,18.8,28.94,SW,225,1.3,1.3,79,0.00,,,0.00,WUHU216HW,2013-01-02 23:17:00,
2013-01-02 17:22:00,24.4,19.2,28.95,SW,225,0.0,1.3,80,0.00,,,0.00,WUHU216HW,2013-01-02 23:22:00,
2013-01-02 17:27:00,24.4,19.2,28.94,SW,225,0.0,0.0,80,0.00,,,0.00,WUHU216HW,2013-01-02 23:27:00,
2013-01-02 17:32:00,24.4,19.2,28.95,SW,225,0.0,0.0,80,0.00,,,0.00,WUHU216HW,2013-01-02 23:32:00,
2013-01-02 17:37:00,24.4,19.2,28.95,SW,225,0.0,0.0,80,0.00,,,0.00,WUHU216HW,2013-01-02 23:37:00,
2013-01-02 17:42:00,24.4,19.4,28.95,SW,225,0.0,0.0,81,0.00,,,0.00,WUHU216HW,2013-01-02 23:42:00,
2013-01-02 17:47:00,24.6,19.6,28.95,SW,225,0.0,0.6,81,0.00,,,0.00,WUHU216HW,2013-01-02 23:47:00,
2013-01-02 17:52:00,24.6,19.6,28.95,SW,225,0.0,0.6,81,0.00,,,0.00,WUHU216HW,2013-01-02 23:52:00,
2013-01-02 17:58:00,24.6,19.6,28.96,SW,225,0.0,0.0,81,0.00,,,0.00,WUHU216HW,2013-01-02 23:58:00,
2013-01-02 18:03:00,24.9,20.0,28.96,SW,225,0.0,0.0,81,0.00,,,0.00,WUHU216HW,2013-01-03 00:03:00,
2013-01-02 18:08:00,24.9,20.0,28.96,SW,225,0.0,0.0,81,0.00,,,0.00,WUHU216HW,2013-01-03 00:08:00,
2013-01-02 18:13:00,24.9,20.0,28.96,SW,225,0.0,0.0,81,0.00,,,0.00,WUHU216HW,2013-01-03 00:13:00,
2013-01-02 18:18:00,25.1,20.1,28.96,SW,225,0.0,0.0,81,0.00,,,0.00,WUHU216HW,2013-01-03 00:18:00,
2013-01-02 18:23:00,25.3,20.3,28.96,SW,225,0.0,0.0,81,0.00,,,0.00,WUHU216HW,2013-01-03 00:23:00,
2013-01-02 18:28:00,25.3,20.6,28.96,WSW,248,0.0,0.0,82,0.00,,,0.00,WUHU216HW,2013-01-03 00:28:00,
2013-01-02 18:34:00,25.5,20.7,28.96,WSW,248,0.0,0.0,82,0.00,,,0.00,WUHU216HW,2013-01-03 00:34:00,
2013-01-02 18:39:00,25.7,20.9,28.96,WSW,248,0.0,0.0,82,0.00,,,0.00,WUHU216HW,2013-01-03 00:39:00,
2013-01-02 18:44:00,25.8,21.3,28.96,WSW,248,0.0,0.0,83,0.00,,,0.00,WUHU216HW,2013-01-03 00:44:00,
2013-01-02 18:49:00,26.0,21.5,28.96,WSW,248,0.0,0.0,83,0.00,,,0.00,WUHU216HW,2013-01-03 00:49:00,
2013-01-02 18:54:00,26.2,21.7,28.96,WSW,248,0.0,0.0,83,0.00,,,0.00,WUHU216HW,2013-01-03 00:54:00,
2013-01-02 18:59:00,26.2,21.7,28.96,WSW,248,0.0,0.0,83,0.00,,,0.00,WUHU216HW,2013-01-03 00:59:00,
2013-01-02 19:04:00,26.2,22.0,28.96,WSW,248,0.0,0.0,84,0.00,,,0.00,WUHU216HW,2013-01-03 01:04:00,
2013-01-02 19:09:00,26.4,22.1,28.97,WSW,248,0.0,0.0,84,0.00,,,0.00,WUHU216HW,2013-01-03 01:09:00,
2013-01-02 19:14:00,26.4,22.1,28.97,WSW,248,0.0,0.0,84,0.00,,,0.00,WUHU216HW,2013-01-03 01:14:00,
2013-01-02 19:19:00,26.4,22.1,28.97,WSW,248,0.0,0.0,84,0.00,,,0.00,WUHU216HW,2013-01-03 01:19:00,
2013-01-02 19:24:00,26.7,22.5,28.97,WSW,248,0.0,0.0,84,0.00,,,0.00,WUHU216HW,2013-01-03 01:24:00,
2013-01-02 19:30:00,26.7,22.5,28.97,WSW,248,0.0,0.0,84,0.00,,,0.00,WUHU216HW,2013-01-03 01:30:00,
2013-01-02 19:35:00,26.7,22.5,28.97,WSW,248,0.0,0.0,84,0.00,,,0.00,WUHU216HW,2013-01-03 01:35:00,
2013-01-02 19:40:00,26.7,22.5,28.97,WSW,248,0.0,0.0,84,0.00,,,0.00,WUHU216HW,2013-01-03 01:40:00,
2013-01-02 19:45:00,26.9,22.7,28.97,WSW,248,0.0,0.0,84,0.00,,,0.00,WUHU216HW,2013-01-03 01:45:00,
2013-01-02 19:50:00,26.9,22.7,28.97,WSW,248,0.0,0.0,84,0.00,,,0.00,WUHU216HW,2013-01-03 01:50:00,
2013-01-02 19:55:00,27.1,22.8,28.97,WSW,248,0.0,0.0,84,0.00,,,0.00,WUHU216HW,2013-01-03 01:55:00,
2013-01-02 20:00:00,27.1,22.8,28.97,WSW,248,0.0,0.0,84,0.00,,,0.00,WUHU216HW,2013-01-03 02:00:00,
2013-01-02 20:05:00,27.1,22.8,28.97,WSW,248,0.0,0.0,84,0.00,,,0.00,WUHU216HW,2013-01-03 02:05:00,
2013-01-02 20:10:00,27.1,22.8,28.97,WSW,248,0.0,0.0,84,0.00,,,0.00,WUHU216HW,2013-01-03 02:10:00,
2013-01-02 20:15:00,27.1,22.8,28.97,WSW,248,0.0,0.0,84,0.00,,,0.00,WUHU216HW,2013-01-03 02:15:00,
2013-01-02 20:21:00,27.3,23.0,28.98,WSW,248,0.0,0.0,84,0.00,,,0.00,WUHU216HW,2013-01-03 02:21:00,
2013-01-02 20:26:00,27.3,23.0,28.97,WSW,248,0.0,0.0,84,0.00,,,0.00,WUHU216HW,2013-01-03 02:26:00,
2013-01-02 20:31:00,27.3,23.0,28.97,WSW,248,0.0,0.0,84,0.00,,,0.00,WUHU216HW,2013-01-03 02:31:00,
2013-01-02 20:36:00,27.5,23.2,28.97,WSW,248,0.0,0.0,84,0.00,,,0.00,WUHU216HW,2013-01-03 02:36:00,
2013-01-02 20:41:00,27.5,23.2,28.97,WNW,293,0.0,0.0,84,0.00,,,0.00,WUHU216HW,2013-01-03 02:41:00,
2013-01-02 20:46:00,27.5,23.2,28.97,WNW,293,0.0,0.8,84,0.00,,,0.00,WUHU216HW,2013-01-03 02:46:00,
2013-01-02 20:51:00,27.5,23.2,28.97,WNW,293,0.0,0.8,84,0.00,,,0.00,WUHU216HW,2013-01-03 02:51:00,
2013-01-02 20:56:00,27.5,23.2,28.98,WNW,293,0.0,1.3,84,0.00,,,0.00,WUHU216HW,2013-01-03 02:56:00,
2013-01-02 21:01:00,27.6,23.4,28.97,NW,315,0.0,1.3,84,0.00,,,0.00,WUHU216HW,2013-01-03 03:01:00,
2013-01-02 21:06:00,27.5,23.2,28.97,NW,315,4.2,4.2,84,0.00,,,0.00,WUHU216HW,2013-01-03 03:06:00,
2013-01-02 21:11:00,27.6,23.4,28.98,NW,315,4.9,6.9,84,0.00,,,0.00,WUHU216HW,2013-01-03 03:11:00,
2013-01-02 21:16:00,27.5,23.2,28.98,NW,315,1.8,6.9,84,0.00,,,0.00,WUHU216HW,2013-01-03 03:16:00,
2013-01-02 21:21:00,27.5,23.2,28.98,NW,315,7.3,7.3,84,0.00,,,0.00,WUHU216HW,2013-01-03 03:21:00,
2013-01-02 21:26:00,27.6,23.4,28.98,NW,315,0.0,7.3,84,0.00,,,0.00,WUHU216HW,2013-01-03 03:26:00,
2013-01-02 21:32:00,27.6,23.2,28.97,NW,315,0.0,7.3,84,0.00,,,0.00,WUHU216HW,2013-01-03 03:32:00,
2013-01-02 21:37:00,27.5,23.2,28.99,NW,315,2.0,2.0,84,0.00,,,0.00,WUHU216HW,2013-01-03 03:37:00,
2013-01-02 21:42:00,27.5,23.2,29.00,NW,315,2.1,2.2,84,0.00,,,0.00,WUHU216HW,2013-01-03 03:42:00,
2013-01-02 21:47:00,27.5,23.2,28.99,NW,315,3.5,3.5,84,0.00,,,0.00,WUHU216HW,2013-01-03 03:47:00,
2013-01-02 21:52:00,27.5,22.9,29.00,NW,315,1.4,3.5,83,0.00,,,0.00,WUHU216HW,2013-01-03 03:52:00,
2013-01-02 21:57:00,27.3,22.7,29.00,NW,315,2.9,6.9,83,0.00,,,0.00,WUHU216HW,2013-01-03 03:57:00,
2013-01-02 22:02:00,27.3,22.7,29.00,NW,315,8.0,8.0,83,0.00,,,0.00,WUHU216HW,2013-01-03 04:02:00,
2013-01-02 22:07:00,27.3,22.7,29.00,NW,315,2.0,8.0,83,0.00,,,0.00,WUHU216HW,2013-01-03 04:07:00,
2013-01-02 22:13:00,27.1,22.6,29.00,NW,315,0.0,6.9,83,0.00,,,0.00,WUHU216HW,2013-01-03 04:13:00,
2013-01-02 22:18:00,27.1,22.6,29.00,WNW,293,6.4,6.7,83,0.00,,,0.00,WUHU216HW,2013-01-03 04:18:00,
2013-01-02 22:23:00,26.9,22.1,29.01,WNW,293,5.5,6.4,82,0.00,,,0.00,WUHU216HW,2013-01-03 04:23:00,
2013-01-02 22:28:00,26.7,21.9,29.00,NW,315,6.9,7.6,82,0.00,,,0.00,WUHU216HW,2013-01-03 04:28:00,
2013-01-02 22:33:00,26.4,21.3,29.01,NW,315,3.5,7.6,81,0.00,,,0.00,WUHU216HW,2013-01-03 04:33:00,
2013-01-02 22:38:00,26.2,21.1,29.01,NW,315,5.9,6.0,81,0.00,,,0.00,WUHU216HW,2013-01-03 04:38:00,
2013-01-02 22:43:00,26.2,21.1,29.01,NW,315,3.3,6.0,81,0.00,,,0.00,WUHU216HW,2013-01-03 04:43:00,
2013-01-02 22:48:00,26.0,20.9,29.01,NW,315,7.8,7.8,81,0.00,,,0.00,WUHU216HW,2013-01-03 04:48:00,
2013-01-02 22:53:00,26.0,20.9,29.02,NW,315,2.6,7.8,81,0.00,,,0.00,WUHU216HW,2013-01-03 04:53:00,
2013-01-02 22:58:00,25.8,20.5,29.02,NW,315,4.6,8.2,80,0.00,,,0.00,WUHU216HW,2013-01-03 04:58:00,
2013-01-02 23:00:00,25.8,20.5,29.02,NW,315,4.6,8.2,80,0.00,,,0.00,WUHU216HW,2013-01-03 05:00:00,
2013-01-02 23:03:00,25.7,20.3,29.02,NW,315,6.4,8.2,80,0.00,,,0.00,WUHU216HW,2013-01-03 05:03:00,
2013-01-02 23:05:00,25.7,20.3,29.02,NW,315,7.3,8.2,80,0.00,,,0.00,WUHU216HW,2013-01-03 05:05:00,
2013-01-02 23:10:00,25.5,19.9,29.02,NNW,330,3.9,7.3,79,0.00,,,0.00,WUHU216HW,2013-01-03 05:10:00,
2013-01-02 23:15:00,25.5,19.9,29.02,NW,315,4.6,5.3,79,0.00,,,0.00,WUHU216HW,2013-01-03 05:15:00,
2013-01-02 23:20:00,25.5,20.2,29.02,NW,315,3.5,4.6,80,0.00,,,0.00,WUHU216HW,2013-01-03 05:20:00,
2013-01-02 23:25:00,25.3,20.0,29.03,NNW,338,3.5,4.6,80,0.00,,,0.00,WUHU216HW,2013-01-03 05:25:00,
2013-01-02 23:30:00,25.3,20.0,29.03,NW,315,1.1,3.5,80,0.00,,,0.00,WUHU216HW,2013-01-03 05:30:00,
2013-01-02 23:35:00,25.3,20.0,29.03,NW,315,3.5,8.0,80,0.00,,,0.00,WUHU216HW,2013-01-03 05:35:00,
2013-01-02 23:40:00,25.3,20.3,29.03,NW,315,6.7,8.0,81,0.00,,,0.00,WUHU216HW,2013-01-03 05:40:00,
2013-01-02 23:45:00,25.3,20.3,29.03,NW,315,4.9,6.7,81,0.00,,,0.00,WUHU216HW,2013-01-03 05:45:00,
2013-01-02 23:50:00,25.3,20.3,29.03,NNW,338,0.0,7.8,81,0.00,,,0.00,WUHU216HW,2013-01-03 05:50:00,
2013-01-02 23:55:00,25.1,20.1,29.03,NW,315,6.0,7.8,81,0.00,,,0.00,WUHU216HW,2013-01-03 05:55:00,